createdAt,value
2022-07-29T00:01:48.380Z,19.37
2022-07-29T00:04:21.676Z,19.36
2022-07-29T00:06:51.637Z,19.34
2022-07-29T00:09:21.386Z,19.34
2022-07-29T00:11:51.145Z,19.35
2022-07-29T00:14:20.873Z,19.33
2022-07-29T00:16:50.551Z,19.33
2022-07-29T00:19:23.308Z,19.33
2022-07-29T00:21:52.919Z,19.31
2022-07-29T00:24:22.593Z,19.29
2022-07-29T00:26:52.211Z,19.26
2022-07-29T00:29:37.630Z,19.25
2022-07-29T00:32:07.629Z,19.22
2022-07-29T00:34:52.345Z,19.21
2022-07-29T00:37:22.233Z,19.20
2022-07-29T00:39:51.843Z,19.19
2022-07-29T00:42:21.532Z,19.19
2022-07-29T00:44:51.190Z,19.18
2022-07-29T00:47:20.932Z,19.17
2022-07-29T00:49:53.216Z,19.17
2022-07-29T00:52:24.315Z,19.17
2022-07-29T00:54:53.965Z,19.16
2022-07-29T00:57:24.066Z,19.17
2022-07-29T00:59:53.690Z,19.16
2022-07-29T01:02:23.492Z,19.15
2022-07-29T01:04:57.994Z,19.14
2022-07-29T01:07:28.603Z,19.13
2022-07-29T01:09:59.035Z,19.13
2022-07-29T01:12:30.953Z,19.10
2022-07-29T01:15:00.609Z,19.09
2022-07-29T01:17:33.018Z,19.06
2022-07-29T01:20:08.162Z,19.05
2022-07-29T01:22:50.631Z,19.02
2022-07-29T01:25:28.609Z,19.00
2022-07-29T01:28:12.742Z,18.99
2022-07-29T01:30:46.175Z,18.97
2022-07-29T01:33:40.712Z,18.93
2022-07-29T01:36:11.420Z,18.90
2022-07-29T01:38:42.271Z,18.84
2022-07-29T01:41:13.936Z,18.83
2022-07-29T01:43:48.384Z,18.82
2022-07-29T01:46:25.152Z,18.82
2022-07-29T01:48:58.799Z,18.85
2022-07-29T01:51:31.984Z,18.87
2022-07-29T01:54:04.955Z,18.88
2022-07-29T01:56:35.353Z,18.86
2022-07-29T01:59:05.745Z,18.88
2022-07-29T02:01:39.184Z,18.88
2022-07-29T02:04:10.896Z,18.89
2022-07-29T02:06:42.427Z,18.90
2022-07-29T02:09:13.450Z,18.89
2022-07-29T02:11:44.238Z,18.87
2022-07-29T02:14:15.266Z,18.84
2022-07-29T02:16:48.246Z,18.81
2022-07-29T02:19:18.328Z,18.79
2022-07-29T02:21:48.939Z,18.76
2022-07-29T02:24:20.429Z,18.75
2022-07-29T02:26:51.757Z,18.74
2022-07-29T02:29:23.703Z,18.72
2022-07-29T02:31:56.716Z,18.71
2022-07-29T02:34:27.384Z,18.65
2022-07-29T02:36:58.177Z,18.58
2022-07-29T02:39:29.861Z,18.52
2022-07-29T02:42:03.023Z,18.46
2022-07-29T02:44:34.781Z,18.38
2022-07-29T02:47:15.157Z,18.33
2022-07-29T02:49:49.246Z,18.27
2022-07-29T02:52:23.066Z,18.23
2022-07-29T02:54:56.080Z,18.22
2022-07-29T02:57:28.304Z,18.19
2022-07-29T03:00:04.209Z,18.18
2022-07-29T03:02:38.102Z,18.17
2022-07-29T03:05:08.258Z,18.13
2022-07-29T03:07:40.868Z,18.10
2022-07-29T03:10:13.627Z,18.07
2022-07-29T03:12:44.145Z,18.06
2022-07-29T03:15:14.482Z,18.03
2022-07-29T03:17:47.290Z,18.00
2022-07-29T03:20:17.491Z,17.98
2022-07-29T03:22:48.565Z,17.95
2022-07-29T03:25:19.710Z,17.92
2022-07-29T03:27:50.148Z,17.92
2022-07-29T03:30:22.207Z,17.90
2022-07-29T03:32:56.645Z,17.88
2022-07-29T03:35:28.570Z,17.86
2022-07-29T03:37:58.706Z,17.85
2022-07-29T03:40:31.779Z,17.83
2022-07-29T03:43:03.124Z,17.77
2022-07-29T03:45:34.470Z,17.72
2022-07-29T03:48:10.611Z,17.67
2022-07-29T03:50:40.412Z,17.64
2022-07-29T03:53:10.168Z,17.60
2022-07-29T03:55:44.065Z,17.55
2022-07-29T03:58:13.574Z,17.50
2022-07-29T04:00:43.762Z,17.41
2022-07-29T04:03:16.917Z,17.39
2022-07-29T04:05:46.767Z,17.35
2022-07-29T04:08:16.454Z,17.32
2022-07-29T04:10:46.555Z,17.28
2022-07-29T04:13:16.563Z,17.25
2022-07-29T04:15:46.296Z,17.22
2022-07-29T04:18:19.355Z,17.21
2022-07-29T04:20:49.174Z,17.20
2022-07-29T04:23:19.204Z,17.21
2022-07-29T04:25:49.031Z,17.23
2022-07-29T04:28:19.013Z,17.25
2022-07-29T04:30:48.739Z,17.27
2022-07-29T04:33:21.145Z,17.31
2022-07-29T04:35:55.020Z,17.34
2022-07-29T04:38:26.798Z,17.37
2022-07-29T04:40:56.482Z,17.37
2022-07-29T04:43:26.779Z,17.38
2022-07-29T04:45:56.694Z,17.37
2022-07-29T04:48:29.092Z,17.35
2022-07-29T04:50:58.897Z,17.33
2022-07-29T04:53:29.340Z,17.31
2022-07-29T04:55:59.273Z,17.29
2022-07-29T04:58:29.140Z,17.29
2022-07-29T05:00:58.979Z,17.30
2022-07-29T05:03:31.365Z,17.30
2022-07-29T05:06:01.026Z,17.27
2022-07-29T05:08:30.732Z,17.26
2022-07-29T05:11:11.326Z,17.25
2022-07-29T05:13:45.749Z,17.27
2022-07-29T05:16:17.418Z,17.30
2022-07-29T05:18:50.066Z,17.33
2022-07-29T05:21:19.722Z,17.37
2022-07-29T05:23:49.449Z,17.40
2022-07-29T05:26:21.469Z,17.46
2022-07-29T05:28:51.697Z,17.51
2022-07-29T05:31:21.425Z,17.52
2022-07-29T05:33:53.830Z,17.53
2022-07-29T05:36:23.498Z,17.53
2022-07-29T05:38:53.169Z,17.54
2022-07-29T05:41:22.838Z,17.57
2022-07-29T05:43:52.951Z,17.62
2022-07-29T05:46:22.625Z,17.69
2022-07-29T05:48:55.010Z,17.76
2022-07-29T05:51:24.714Z,17.83
2022-07-29T05:53:54.461Z,17.93
2022-07-29T05:56:24.385Z,18.01
2022-07-29T05:58:54.374Z,18.12
2022-07-29T06:01:24.357Z,18.25
2022-07-29T06:03:57.000Z,18.38
2022-07-29T06:06:26.760Z,18.51
2022-07-29T06:08:56.470Z,18.63
2022-07-29T06:11:26.379Z,18.79
2022-07-29T06:13:56.410Z,18.97
2022-07-29T06:16:30.166Z,19.13
2022-07-29T06:19:02.710Z,19.32
2022-07-29T06:21:32.370Z,19.54
2022-07-29T06:24:02.510Z,19.78
2022-07-29T06:26:35.281Z,20.06
2022-07-29T06:29:09.038Z,20.33
2022-07-29T06:31:38.672Z,20.61
2022-07-29T06:34:11.338Z,20.85
2022-07-29T06:36:41.574Z,20.98
2022-07-29T06:39:12.365Z,21.01
2022-07-29T06:41:42.249Z,20.96
2022-07-29T06:44:15.146Z,20.88
2022-07-29T06:46:45.346Z,20.82
2022-07-29T06:49:17.722Z,20.74
2022-07-29T06:51:47.620Z,20.69
2022-07-29T06:54:17.718Z,20.64
2022-07-29T06:56:47.810Z,20.59
2022-07-29T06:59:17.584Z,20.53
2022-07-29T07:01:47.617Z,20.50
2022-07-29T07:04:20.341Z,20.45
2022-07-29T07:06:51.698Z,20.44
2022-07-29T07:09:21.304Z,20.43
2022-07-29T07:11:50.978Z,20.44
2022-07-29T07:14:21.250Z,20.45
2022-07-29T07:16:52.701Z,20.44
2022-07-29T07:19:27.006Z,20.42
2022-07-29T07:21:57.160Z,20.39
2022-07-29T07:24:27.045Z,20.35
2022-07-29T07:26:57.931Z,20.28
2022-07-29T07:29:27.581Z,20.25
2022-07-29T07:32:00.761Z,20.26
2022-07-29T07:34:33.953Z,20.26
2022-07-29T07:37:08.593Z,20.27
2022-07-29T07:39:38.384Z,20.30
2022-07-29T07:42:08.287Z,20.26
2022-07-29T07:44:57.192Z,20.20
2022-07-29T07:47:27.944Z,20.07
2022-07-29T07:50:01.198Z,19.95
2022-07-29T07:52:30.893Z,19.85
2022-07-29T07:55:02.498Z,19.75
2022-07-29T07:57:32.249Z,19.66
2022-07-29T08:00:01.929Z,19.54
2022-07-29T08:02:43.891Z,19.44
2022-07-29T08:05:18.052Z,19.38
2022-07-29T08:07:49.027Z,19.32
2022-07-29T08:10:39.589Z,19.31
2022-07-29T08:13:11.891Z,19.32
2022-07-29T08:15:44.140Z,19.31
2022-07-29T08:18:14.116Z,19.32
2022-07-29T08:20:46.339Z,19.34
2022-07-29T08:23:16.605Z,19.32
2022-07-29T08:25:46.294Z,19.24
2022-07-29T08:28:20.347Z,19.18
2022-07-29T08:30:50.115Z,19.16
2022-07-29T08:33:21.396Z,19.19
2022-07-29T08:35:53.894Z,19.28
2022-07-29T08:38:23.850Z,19.46
2022-07-29T08:40:53.639Z,19.64
2022-07-29T08:43:23.446Z,19.71
2022-07-29T08:45:55.100Z,19.62
2022-07-29T08:48:27.030Z,19.47
2022-07-29T08:51:00.251Z,19.33
2022-07-29T08:53:31.621Z,19.22
2022-07-29T08:56:01.808Z,19.10
2022-07-29T08:58:36.781Z,19.06
2022-07-29T09:01:07.770Z,19.08
2022-07-29T09:03:44.299Z,19.14
2022-07-29T09:06:17.166Z,19.23
2022-07-29T09:08:46.971Z,19.35
2022-07-29T09:11:17.098Z,19.45
2022-07-29T09:13:47.578Z,19.51
2022-07-29T09:16:37.266Z,19.53
2022-07-29T09:19:23.496Z,19.55
2022-07-29T09:22:03.602Z,19.57
2022-07-29T09:24:42.753Z,19.65
2022-07-29T09:27:22.725Z,19.71
2022-07-29T09:30:00.533Z,19.80
2022-07-29T09:32:30.597Z,19.86
2022-07-29T09:35:18.290Z,19.91
2022-07-29T09:37:51.345Z,19.96
2022-07-29T09:40:22.667Z,20.00
2022-07-29T09:42:53.873Z,20.05
2022-07-29T09:45:34.208Z,20.08
2022-07-29T09:48:18.358Z,20.10
2022-07-29T09:50:50.605Z,20.11
2022-07-29T09:53:38.790Z,20.12
2022-07-29T09:56:08.834Z,20.18
2022-07-29T09:58:39.577Z,20.25
2022-07-29T10:01:09.351Z,20.32
2022-07-29T10:03:54.586Z,20.39
2022-07-29T10:06:24.336Z,20.43
2022-07-29T10:08:57.537Z,20.46
2022-07-29T10:11:27.196Z,20.46
2022-07-29T10:14:17.226Z,20.45
2022-07-29T10:16:47.489Z,20.38
2022-07-29T10:19:17.550Z,20.22
2022-07-29T10:21:47.689Z,20.05
2022-07-29T10:24:20.519Z,19.93
2022-07-29T10:26:50.240Z,19.91
2022-07-29T10:29:19.925Z,19.99
2022-07-29T10:31:57.069Z,20.15
2022-07-29T10:34:35.817Z,20.33
2022-07-29T10:37:12.837Z,20.52
2022-07-29T10:39:57.330Z,20.74
2022-07-29T10:42:33.593Z,20.93
2022-07-29T10:45:04.881Z,21.09
2022-07-29T10:47:35.704Z,21.23
2022-07-29T10:50:07.634Z,21.39
2022-07-29T10:52:59.479Z,21.55
2022-07-29T10:55:43.708Z,21.70
2022-07-29T10:58:19.427Z,21.79
2022-07-29T11:00:49.707Z,21.87
2022-07-29T11:03:49.028Z,21.93
2022-07-29T11:06:26.859Z,22.00
2022-07-29T11:09:20.063Z,22.10
2022-07-29T11:11:53.248Z,22.17
2022-07-29T11:15:01.553Z,22.26
2022-07-29T11:17:46.871Z,22.42
2022-07-29T11:20:42.486Z,22.76
2022-07-29T11:23:25.470Z,23.11
2022-07-29T11:26:23.194Z,23.46
2022-07-29T11:29:01.730Z,23.87
2022-07-29T11:31:40.308Z,24.19
2022-07-29T11:34:28.039Z,24.32
2022-07-29T11:37:34.814Z,24.33
2022-07-29T11:40:21.459Z,24.38
2022-07-29T11:42:52.833Z,24.49
2022-07-29T11:45:43.739Z,24.62
2022-07-29T11:48:28.541Z,24.71
2022-07-29T11:51:00.572Z,24.65
2022-07-29T11:53:33.074Z,24.60
2022-07-29T11:56:03.876Z,24.54
2022-07-29T11:58:34.178Z,24.53
2022-07-29T12:01:07.321Z,24.53
2022-07-29T12:03:37.325Z,24.56
2022-07-29T12:06:08.302Z,24.61
2022-07-29T12:08:44.924Z,24.65
2022-07-29T12:11:22.774Z,24.73
2022-07-29T12:13:53.226Z,24.79
2022-07-29T12:16:29.376Z,24.80
2022-07-29T12:19:03.960Z,24.82
2022-07-29T12:21:53.900Z,24.86
2022-07-29T12:24:27.304Z,24.85
2022-07-29T12:26:59.752Z,24.87
2022-07-29T12:29:33.908Z,24.91
2022-07-29T12:32:15.096Z,24.97
2022-07-29T12:34:49.780Z,25.03
2022-07-29T12:37:19.686Z,25.04
2022-07-29T12:40:00.632Z,25.05
2022-07-29T12:42:30.254Z,25.09
2022-07-29T12:44:59.905Z,25.16
2022-07-29T12:47:32.498Z,25.27
2022-07-29T12:50:15.352Z,25.36
2022-07-29T12:52:45.056Z,25.37
2022-07-29T12:55:15.586Z,25.36
2022-07-29T12:57:51.628Z,25.35
2022-07-29T13:00:26.422Z,25.27
2022-07-29T13:03:01.841Z,25.16
2022-07-29T13:05:48.568Z,25.12
2022-07-29T13:08:22.243Z,25.13
2022-07-29T13:10:52.237Z,25.20
2022-07-29T13:13:22.159Z,25.33
2022-07-29T13:16:09.549Z,25.49
2022-07-29T13:18:42.324Z,25.57
2022-07-29T13:21:16.101Z,25.56
2022-07-29T13:23:46.656Z,25.48
2022-07-29T13:26:17.334Z,25.45
2022-07-29T13:28:46.986Z,25.49
2022-07-29T13:31:16.750Z,25.48
2022-07-29T13:33:49.038Z,25.49
2022-07-29T13:36:18.683Z,25.51
2022-07-29T13:38:48.357Z,25.51
2022-07-29T13:41:18.004Z,25.48
2022-07-29T13:43:47.911Z,25.46
2022-07-29T13:46:19.895Z,25.42
2022-07-29T13:48:52.483Z,25.40
2022-07-29T13:51:22.179Z,25.43
2022-07-29T13:53:51.854Z,25.46
2022-07-29T13:56:21.492Z,25.41
2022-07-29T13:58:51.407Z,25.35
2022-07-29T14:01:21.303Z,25.30
2022-07-29T14:03:53.669Z,25.26
2022-07-29T14:06:23.283Z,25.21
2022-07-29T14:08:53.036Z,25.21
2022-07-29T14:11:22.759Z,25.21
2022-07-29T14:13:52.378Z,25.23
2022-07-29T14:16:22.070Z,25.20
2022-07-29T14:18:54.372Z,25.22
2022-07-29T14:21:24.058Z,25.18
2022-07-29T14:23:55.646Z,25.18
2022-07-29T14:26:26.388Z,25.16
2022-07-29T14:28:57.096Z,25.13
2022-07-29T14:31:26.888Z,25.10
2022-07-29T14:34:02.717Z,25.04
2022-07-29T14:36:33.073Z,24.93
2022-07-29T14:39:02.782Z,24.86
2022-07-29T14:41:32.404Z,24.82
2022-07-29T14:44:02.443Z,24.79
2022-07-29T14:46:32.250Z,24.76
2022-07-29T14:49:04.631Z,24.72
2022-07-29T14:51:36.598Z,24.64
2022-07-29T14:54:06.376Z,24.59
2022-07-29T14:56:37.538Z,24.53
2022-07-29T14:59:07.646Z,24.50
2022-07-29T15:01:37.315Z,24.50
2022-07-29T15:04:09.674Z,24.49
2022-07-29T15:06:40.661Z,24.49
2022-07-29T15:09:10.378Z,24.49
2022-07-29T15:11:40.037Z,24.51
2022-07-29T15:14:10.005Z,24.50
2022-07-29T15:16:43.714Z,24.50
2022-07-29T15:19:18.828Z,24.50
2022-07-29T15:21:49.224Z,24.49
2022-07-29T15:24:19.219Z,24.44
2022-07-29T15:26:49.525Z,24.39
2022-07-29T15:29:19.402Z,24.40
2022-07-29T15:31:49.089Z,24.40
2022-07-29T15:34:21.602Z,24.42
2022-07-29T15:36:52.794Z,24.39
2022-07-29T15:39:23.257Z,24.37
2022-07-29T15:41:53.593Z,24.34
2022-07-29T15:44:23.889Z,24.34
2022-07-29T15:47:08.985Z,24.35
2022-07-29T15:49:47.401Z,24.34
2022-07-29T15:52:26.215Z,24.32
2022-07-29T15:54:56.616Z,24.28
2022-07-29T15:57:27.155Z,24.19
2022-07-29T15:59:57.264Z,24.08
2022-07-29T16:02:26.917Z,23.99
2022-07-29T16:04:59.157Z,23.92
2022-07-29T16:07:31.727Z,23.87
2022-07-29T16:10:02.248Z,23.86
2022-07-29T16:12:31.934Z,23.86
2022-07-29T16:15:06.186Z,23.88
2022-07-29T16:17:38.974Z,23.89
2022-07-29T16:20:13.909Z,23.90
2022-07-29T16:22:43.720Z,23.91
2022-07-29T16:25:13.361Z,23.93
2022-07-29T16:27:43.052Z,23.92
2022-07-29T16:30:13.846Z,23.89
2022-07-29T16:32:43.507Z,23.87
2022-07-29T16:35:15.767Z,23.83
2022-07-29T16:37:45.388Z,23.78
2022-07-29T16:40:15.559Z,23.75
2022-07-29T16:42:47.070Z,23.70
2022-07-29T16:45:17.995Z,23.66
2022-07-29T16:47:50.736Z,23.62
2022-07-29T16:50:23.802Z,23.58
2022-07-29T16:52:53.524Z,23.54
2022-07-29T16:55:23.385Z,23.48
2022-07-29T16:57:53.509Z,23.45
2022-07-29T17:00:24.927Z,23.38
2022-07-29T17:02:54.618Z,23.29
2022-07-29T17:05:26.949Z,23.20
2022-07-29T17:07:58.462Z,23.12
2022-07-29T17:10:29.974Z,23.07
2022-07-29T17:12:59.757Z,23.04
2022-07-29T17:15:29.534Z,23.02
2022-07-29T17:18:00.720Z,23.01
2022-07-29T17:20:33.240Z,23.00
2022-07-29T17:23:02.961Z,22.99
2022-07-29T17:25:32.697Z,23.00
2022-07-29T17:28:02.402Z,23.03
2022-07-29T17:30:32.214Z,23.07
2022-07-29T17:33:01.889Z,23.10
2022-07-29T17:35:46.595Z,23.10
2022-07-29T17:38:16.228Z,23.07
2022-07-29T17:40:45.937Z,23.07
2022-07-29T17:43:15.583Z,23.04
2022-07-29T17:45:49.502Z,23.00
2022-07-29T17:48:21.087Z,22.96
2022-07-29T17:50:53.745Z,22.90
2022-07-29T17:53:23.442Z,22.86
2022-07-29T17:55:53.085Z,22.81
2022-07-29T17:58:23.131Z,22.76
2022-07-29T18:00:53.009Z,22.74
2022-07-29T18:03:22.990Z,22.72
2022-07-29T18:05:56.132Z,22.71
2022-07-29T18:08:25.782Z,22.70
2022-07-29T18:10:56.567Z,22.68
2022-07-29T18:13:26.427Z,22.65
2022-07-29T18:16:00.060Z,22.62
2022-07-29T18:18:30.348Z,22.55
2022-07-29T18:21:02.610Z,22.48
2022-07-29T18:23:32.294Z,22.41
2022-07-29T18:26:01.958Z,22.35
2022-07-29T18:28:32.759Z,22.28
2022-07-29T18:31:02.559Z,22.20
2022-07-29T18:33:32.723Z,22.14
2022-07-29T18:36:11.263Z,22.08
2022-07-29T18:38:41.806Z,22.03
2022-07-29T18:41:11.574Z,21.97
2022-07-29T18:43:41.380Z,21.90
2022-07-29T18:46:11.071Z,21.85
2022-07-29T18:48:42.582Z,21.78
2022-07-29T18:51:14.854Z,21.71
2022-07-29T18:53:46.075Z,21.63
2022-07-29T18:56:15.733Z,21.56
2022-07-29T18:58:45.369Z,21.47
2022-07-29T19:01:16.840Z,21.40
2022-07-29T19:03:46.584Z,21.30
2022-07-29T19:06:22.670Z,21.20
2022-07-29T19:08:55.042Z,21.10
2022-07-29T19:11:24.920Z,21.03
2022-07-29T19:13:54.579Z,20.93
2022-07-29T19:16:24.259Z,20.86
2022-07-29T19:18:53.968Z,20.76
2022-07-29T19:21:28.353Z,20.67
2022-07-29T19:24:02.473Z,20.59
2022-07-29T19:26:43.982Z,20.51
2022-07-29T19:29:13.646Z,20.43
2022-07-29T19:31:43.403Z,20.35
2022-07-29T19:34:13.249Z,20.27
2022-07-29T19:36:45.660Z,20.21
2022-07-29T19:39:15.448Z,20.17
2022-07-29T19:41:45.120Z,20.12
2022-07-29T19:44:15.599Z,20.08
2022-07-29T19:46:45.508Z,20.03
2022-07-29T19:49:15.489Z,19.98
2022-07-29T19:51:47.760Z,19.91
2022-07-29T19:54:18.390Z,19.86
2022-07-29T19:56:48.062Z,19.78
2022-07-29T19:59:17.712Z,19.74
2022-07-29T20:01:53.622Z,19.67
2022-07-29T20:04:23.330Z,19.59
2022-07-29T20:07:01.239Z,19.50
2022-07-29T20:09:31.622Z,19.40
2022-07-29T20:12:01.812Z,19.30
2022-07-29T20:14:31.717Z,19.21
2022-07-29T20:17:01.952Z,19.14
2022-07-29T20:19:32.929Z,19.05
2022-07-29T20:22:05.226Z,18.96
2022-07-29T20:24:34.875Z,18.88
2022-07-29T20:27:04.647Z,18.80
2022-07-29T20:29:43.409Z,18.76
2022-07-29T20:32:13.495Z,18.74
2022-07-29T20:34:43.965Z,18.70
2022-07-29T20:37:17.823Z,18.67
2022-07-29T20:39:47.902Z,18.59
2022-07-29T20:42:17.767Z,18.56
2022-07-29T20:44:49.448Z,18.56
2022-07-29T20:47:20.900Z,18.59
2022-07-29T20:49:50.781Z,18.63
2022-07-29T20:52:23.554Z,18.64
2022-07-29T20:54:53.292Z,18.64
2022-07-29T20:57:38.463Z,18.66
2022-07-29T21:00:11.579Z,18.66
2022-07-29T21:02:41.934Z,18.69
2022-07-29T21:05:12.493Z,18.68
2022-07-29T21:07:44.849Z,18.68
2022-07-29T21:10:15.039Z,18.69
2022-07-29T21:12:44.749Z,18.69
2022-07-29T21:15:15.470Z,18.70
2022-07-29T21:17:49.091Z,18.72
2022-07-29T21:20:19.808Z,18.72
2022-07-29T21:22:55.483Z,18.73
2022-07-29T21:25:25.532Z,18.74
2022-07-29T21:28:07.659Z,18.76
2022-07-29T21:30:37.488Z,18.75
2022-07-29T21:33:07.485Z,18.76
2022-07-29T21:36:01.499Z,18.77
2022-07-29T21:38:29.417Z,18.77
2022-07-29T21:40:59.619Z,18.79
2022-07-29T21:43:29.746Z,18.80
2022-07-29T21:46:00.139Z,18.81
2022-07-29T21:48:31.278Z,18.83
2022-07-29T21:51:00.926Z,18.82
2022-07-29T21:53:33.186Z,18.84
2022-07-29T21:56:03.439Z,18.84
2022-07-29T21:58:35.688Z,18.86
2022-07-29T22:01:05.353Z,18.87
2022-07-29T22:03:35.110Z,18.89
2022-07-29T22:06:04.828Z,18.90
2022-07-29T22:08:38.413Z,18.91
2022-07-29T22:11:08.055Z,18.93
2022-07-29T22:13:37.737Z,18.93
2022-07-29T22:16:09.549Z,18.93
2022-07-29T22:18:39.234Z,18.94
2022-07-29T22:21:08.858Z,18.94
2022-07-29T22:23:41.318Z,18.96
2022-07-29T22:26:11.082Z,18.94
2022-07-29T22:28:40.799Z,18.94
2022-07-29T22:31:10.695Z,18.93
2022-07-29T22:33:40.480Z,18.94
2022-07-29T22:36:10.830Z,18.96
2022-07-29T22:38:43.126Z,18.96
2022-07-29T22:41:15.576Z,18.96
2022-07-29T22:43:45.402Z,18.96
2022-07-29T22:46:15.062Z,18.96
2022-07-29T22:48:45.001Z,18.94
2022-07-29T22:51:14.690Z,18.93
2022-07-29T22:53:47.042Z,18.91
2022-07-29T22:56:16.741Z,18.86
2022-07-29T22:58:46.402Z,18.82
2022-07-29T23:01:16.123Z,18.76
2022-07-29T23:03:50.943Z,18.69
2022-07-29T23:06:21.197Z,18.60
2022-07-29T23:08:53.443Z,18.51
2022-07-29T23:11:23.061Z,18.39
2022-07-29T23:13:52.765Z,18.26
2022-07-29T23:16:26.296Z,18.12
2022-07-29T23:18:56.774Z,17.98
2022-07-29T23:21:26.459Z,17.83
2022-07-29T23:23:59.101Z,17.69
2022-07-29T23:26:28.742Z,17.56
2022-07-29T23:28:58.388Z,17.44
2022-07-29T23:31:28.075Z,17.34
2022-07-29T23:33:57.696Z,17.23
2022-07-29T23:36:27.328Z,17.11
2022-07-29T23:39:00.153Z,17.02
2022-07-29T23:41:32.444Z,16.92
2022-07-29T23:44:02.111Z,16.83
2022-07-29T23:46:31.822Z,16.75
2022-07-29T23:49:01.583Z,16.68
2022-07-29T23:51:31.743Z,16.60
2022-07-29T23:54:04.002Z,16.55
2022-07-29T23:56:33.626Z,16.47
2022-07-29T23:59:05.683Z,16.40
